createdAt,value
2022-08-21T00:02:22.678Z,99.66
2022-08-21T00:04:57.528Z,100.00
2022-08-21T00:07:25.256Z,100.00
2022-08-21T00:09:52.889Z,98.76
2022-08-21T00:12:20.033Z,98.83
2022-08-21T00:14:46.968Z,98.75
2022-08-21T00:17:13.642Z,98.65
2022-08-21T00:19:40.349Z,98.78
2022-08-21T00:22:06.911Z,99.10
2022-08-21T00:24:33.565Z,100.00
2022-08-21T00:27:00.479Z,99.09
2022-08-21T00:29:27.028Z,98.39
2022-08-21T00:31:53.680Z,98.78
2022-08-21T00:34:20.374Z,98.79
2022-08-21T00:36:46.909Z,98.49
2022-08-21T00:39:13.641Z,99.43
2022-08-21T00:41:40.856Z,98.93
2022-08-21T00:44:12.512Z,99.44
2022-08-21T00:46:40.492Z,99.64
2022-08-21T00:49:08.471Z,99.66
2022-08-21T00:51:51.531Z,100.00
2022-08-21T00:54:19.877Z,100.00
2022-08-21T00:56:50.879Z,100.00
2022-08-21T00:59:20.220Z,100.00
2022-08-21T01:01:47.946Z,99.99
2022-08-21T01:04:16.701Z,99.81
2022-08-21T01:06:44.172Z,100.00
2022-08-21T01:09:11.424Z,99.62
2022-08-21T01:11:38.673Z,99.87
2022-08-21T01:14:05.356Z,99.84
2022-08-21T01:16:33.688Z,99.54
2022-08-21T01:19:00.714Z,99.47
2022-08-21T01:21:29.142Z,99.35
2022-08-21T01:23:57.856Z,99.70
2022-08-21T01:26:33.986Z,99.97
2022-08-21T01:29:15.452Z,99.82
2022-08-21T01:31:42.035Z,100.00
2022-08-21T01:34:09.819Z,100.00
2022-08-21T01:36:36.696Z,100.00
2022-08-21T01:39:05.898Z,100.00
2022-08-21T01:41:32.589Z,100.00
2022-08-21T01:43:59.210Z,100.00
2022-08-21T01:46:25.832Z,99.96
2022-08-21T01:48:52.559Z,99.64
2022-08-21T01:51:19.681Z,99.07
2022-08-21T01:53:46.320Z,98.87
2022-08-21T01:56:15.023Z,98.78
2022-08-21T01:58:42.840Z,98.50
2022-08-21T02:01:10.572Z,98.09
2022-08-21T02:03:38.257Z,97.55
2022-08-21T02:06:07.862Z,97.43
2022-08-21T02:08:35.347Z,97.32
2022-08-21T02:11:02.352Z,96.97
2022-08-21T02:13:29.088Z,96.63
2022-08-21T02:15:55.684Z,96.88
2022-08-21T02:18:22.262Z,96.94
2022-08-21T02:20:55.812Z,97.65
2022-08-21T02:23:26.953Z,97.79
2022-08-21T02:25:55.853Z,98.23
2022-08-21T02:28:22.936Z,98.36
2022-08-21T02:30:51.713Z,98.47
2022-08-21T02:33:18.821Z,99.07
2022-08-21T02:35:47.312Z,98.68
2022-08-21T02:38:20.699Z,98.72
2022-08-21T02:40:51.017Z,98.62
2022-08-21T02:43:19.691Z,99.07
2022-08-21T02:45:47.692Z,99.09
2022-08-21T02:48:18.408Z,99.02
2022-08-21T02:50:48.866Z,99.03
2022-08-21T02:53:17.712Z,99.12
2022-08-21T02:55:49.700Z,99.25
2022-08-21T02:58:19.748Z,98.69
2022-08-21T03:00:46.770Z,98.32
2022-08-21T03:03:15.696Z,97.86
2022-08-21T03:05:44.340Z,98.27
2022-08-21T03:08:13.167Z,98.62
2022-08-21T03:10:43.604Z,98.98
2022-08-21T03:13:10.756Z,98.71
2022-08-21T03:15:38.046Z,98.63
2022-08-21T03:18:06.040Z,99.07
2022-08-21T03:20:33.612Z,98.32
2022-08-21T03:23:01.734Z,98.80
2022-08-21T03:25:33.309Z,98.84
2022-08-21T03:28:12.984Z,99.02
2022-08-21T03:30:42.275Z,99.04
2022-08-21T03:33:09.253Z,99.17
2022-08-21T03:35:39.842Z,98.67
2022-08-21T03:38:06.682Z,98.34
2022-08-21T03:40:33.328Z,98.62
2022-08-21T03:43:00.089Z,98.49
2022-08-21T03:45:26.670Z,98.61
2022-08-21T03:47:56.870Z,98.31
2022-08-21T03:50:25.086Z,98.51
2022-08-21T03:52:51.887Z,98.74
2022-08-21T03:55:18.498Z,98.43
2022-08-21T03:57:45.129Z,98.26
2022-08-21T04:00:13.152Z,97.65
2022-08-21T04:02:40.775Z,97.85
2022-08-21T04:05:08.352Z,97.92
2022-08-21T04:07:34.970Z,98.08
2022-08-21T04:10:01.469Z,98.17
2022-08-21T04:12:28.004Z,97.94
2022-08-21T04:14:54.560Z,97.67
2022-08-21T04:17:21.149Z,97.98
2022-08-21T04:19:50.568Z,98.02
2022-08-21T04:22:20.162Z,97.84
2022-08-21T04:24:46.661Z,97.73
2022-08-21T04:27:13.189Z,97.62
2022-08-21T04:29:40.200Z,97.64
2022-08-21T04:32:07.344Z,97.01
2022-08-21T04:34:34.118Z,97.54
2022-08-21T04:37:00.697Z,96.32
2022-08-21T04:39:29.506Z,96.17
2022-08-21T04:41:57.635Z,96.52
2022-08-21T04:44:24.596Z,96.77
2022-08-21T04:46:51.358Z,96.96
2022-08-21T04:49:19.022Z,97.07
2022-08-21T04:51:45.869Z,97.04
2022-08-21T04:54:18.232Z,97.34
2022-08-21T04:56:54.742Z,97.39
2022-08-21T04:59:29.224Z,96.61
2022-08-21T05:01:58.080Z,96.62
2022-08-21T05:04:31.155Z,96.40
2022-08-21T05:07:03.252Z,95.99
2022-08-21T05:09:31.176Z,95.80
2022-08-21T05:11:58.537Z,95.74
2022-08-21T05:14:27.390Z,96.19
2022-08-21T05:16:53.941Z,96.11
2022-08-21T05:19:20.598Z,94.83
2022-08-21T05:21:49.262Z,95.39
2022-08-21T05:24:16.897Z,95.13
2022-08-21T05:26:46.329Z,95.48
2022-08-21T05:29:16.628Z,94.60
2022-08-21T05:31:44.077Z,94.53
2022-08-21T05:34:16.317Z,92.58
2022-08-21T05:36:45.919Z,92.66
2022-08-21T05:39:12.947Z,92.39
2022-08-21T05:41:42.614Z,93.32
2022-08-21T05:44:10.081Z,93.66
2022-08-21T05:46:38.528Z,93.64
2022-08-21T05:49:05.135Z,93.34
2022-08-21T05:51:32.228Z,92.48
2022-08-21T05:53:58.862Z,92.34
2022-08-21T05:56:25.488Z,91.95
2022-08-21T05:58:53.348Z,91.68
2022-08-21T06:01:19.962Z,91.87
2022-08-21T06:03:46.821Z,92.32
2022-08-21T06:06:15.273Z,92.69
2022-08-21T06:08:41.876Z,92.77
2022-08-21T06:11:11.199Z,91.94
2022-08-21T06:13:38.360Z,92.38
2022-08-21T06:16:22.333Z,91.62
2022-08-21T06:18:49.250Z,90.75
2022-08-21T06:21:25.271Z,91.08
2022-08-21T06:23:51.846Z,89.96
2022-08-21T06:26:37.931Z,89.77
2022-08-21T06:29:08.514Z,89.65
2022-08-21T06:31:35.149Z,88.77
2022-08-21T06:34:04.083Z,87.35
2022-08-21T06:36:31.024Z,87.85
2022-08-21T06:39:02.963Z,88.60
2022-08-21T06:41:48.449Z,88.29
2022-08-21T06:44:26.003Z,89.06
2022-08-21T06:46:52.866Z,86.94
2022-08-21T06:49:21.640Z,85.57
2022-08-21T06:51:48.684Z,86.57
2022-08-21T06:54:15.397Z,85.53
2022-08-21T06:56:42.224Z,84.09
2022-08-21T06:59:08.797Z,85.82
2022-08-21T07:01:35.539Z,85.39
2022-08-21T07:04:02.821Z,86.44
2022-08-21T07:06:29.666Z,86.91
2022-08-21T07:09:02.186Z,86.04
2022-08-21T07:11:32.200Z,86.37
2022-08-21T07:14:09.080Z,85.52
2022-08-21T07:16:44.484Z,84.59
2022-08-21T07:19:11.218Z,85.46
2022-08-21T07:21:40.598Z,87.49
2022-08-21T07:24:07.251Z,83.79
2022-08-21T07:26:33.994Z,85.59
2022-08-21T07:29:00.683Z,84.18
2022-08-21T07:31:28.024Z,84.79
2022-08-21T07:33:55.048Z,85.12
2022-08-21T07:36:21.854Z,83.52
2022-08-21T07:38:54.571Z,83.00
2022-08-21T07:41:39.952Z,82.26
2022-08-21T07:44:06.714Z,84.17
2022-08-21T07:46:33.650Z,83.27
2022-08-21T07:49:03.197Z,81.24
2022-08-21T07:51:42.058Z,82.59
2022-08-21T07:54:09.724Z,81.74
2022-08-21T07:56:46.740Z,80.55
2022-08-21T07:59:20.128Z,80.64
2022-08-21T08:01:46.777Z,77.56
2022-08-21T08:04:26.436Z,78.06
2022-08-21T08:06:56.722Z,76.96
2022-08-21T08:09:24.376Z,77.12
2022-08-21T08:11:53.042Z,74.96
2022-08-21T08:14:21.652Z,77.63
2022-08-21T08:16:58.227Z,77.02
2022-08-21T08:19:24.700Z,72.95
2022-08-21T08:21:51.235Z,71.41
2022-08-21T08:24:19.252Z,71.59
2022-08-21T08:26:46.878Z,69.05
2022-08-21T08:29:20.300Z,69.89
2022-08-21T08:31:46.840Z,70.89
2022-08-21T08:34:13.429Z,72.42
2022-08-21T08:36:54.435Z,72.22
2022-08-21T08:39:26.992Z,71.92
2022-08-21T08:42:33.594Z,70.48
2022-08-21T08:45:13.270Z,69.47
2022-08-21T08:47:45.727Z,68.21
2022-08-21T08:50:19.708Z,68.68
2022-08-21T08:52:59.810Z,66.33
2022-08-21T08:55:35.573Z,66.87
2022-08-21T08:58:03.642Z,65.82
2022-08-21T09:00:32.077Z,66.61
2022-08-21T09:03:02.324Z,68.20
2022-08-21T09:05:43.585Z,65.90
2022-08-21T09:08:29.224Z,62.77
2022-08-21T09:11:04.639Z,65.29
2022-08-21T09:13:56.129Z,65.32
2022-08-21T09:16:49.199Z,62.51
2022-08-21T09:19:47.375Z,63.48
2022-08-21T09:22:33.284Z,66.87
2022-08-21T09:25:27.492Z,66.89
2022-08-21T09:27:55.780Z,63.17
2022-08-21T09:30:33.191Z,62.29
2022-08-21T09:33:01.024Z,61.77
2022-08-21T09:35:27.937Z,63.42
2022-08-21T09:37:56.246Z,63.41
2022-08-21T09:40:35.230Z,59.12
2022-08-21T09:43:18.074Z,58.31
2022-08-21T09:46:10.931Z,59.11
2022-08-21T09:48:49.528Z,60.02
2022-08-21T09:51:19.548Z,58.45
2022-08-21T09:54:07.150Z,58.32
2022-08-21T09:57:00.278Z,59.10
2022-08-21T09:59:37.136Z,59.40
2022-08-21T10:02:25.437Z,55.24
2022-08-21T10:05:31.465Z,64.41
2022-08-21T10:08:01.892Z,56.36
2022-08-21T10:10:38.683Z,56.78
2022-08-21T10:13:07.580Z,54.99
2022-08-21T10:15:48.303Z,55.48
2022-08-21T10:18:27.497Z,56.08
2022-08-21T10:21:00.175Z,62.05
2022-08-21T10:23:49.000Z,59.58
2022-08-21T10:26:37.117Z,56.16
2022-08-21T10:29:30.273Z,54.56
2022-08-21T10:32:22.406Z,54.69
2022-08-21T10:35:22.739Z,58.93
2022-08-21T10:38:50.281Z,53.16
2022-08-21T10:41:27.066Z,52.79
2022-08-21T10:44:13.849Z,52.16
2022-08-21T10:47:05.337Z,50.89
2022-08-21T10:49:45.411Z,54.45
2022-08-21T10:52:30.178Z,52.76
2022-08-21T10:55:21.755Z,52.89
2022-08-21T10:58:14.615Z,50.11
2022-08-21T11:00:51.571Z,50.07
2022-08-21T11:03:30.659Z,57.12
2022-08-21T11:06:06.653Z,51.59
2022-08-21T11:08:40.004Z,51.27
2022-08-21T11:11:46.664Z,51.24
2022-08-21T11:15:06.982Z,53.91
2022-08-21T11:17:53.879Z,51.98
2022-08-21T11:20:33.529Z,49.84
2022-08-21T11:23:34.742Z,49.81
2022-08-21T11:26:13.547Z,50.39
2022-08-21T11:28:50.100Z,50.11
2022-08-21T11:31:47.199Z,47.94
2022-08-21T11:34:26.601Z,46.61
2022-08-21T11:37:22.645Z,49.26
2022-08-21T11:40:03.630Z,48.37
2022-08-21T11:42:33.034Z,46.29
2022-08-21T11:45:18.879Z,44.49
2022-08-21T11:47:53.855Z,44.98
2022-08-21T11:50:35.739Z,45.03
2022-08-21T11:53:26.803Z,44.99
2022-08-21T11:56:12.047Z,46.20
2022-08-21T11:58:52.380Z,46.34
2022-08-21T12:01:28.369Z,45.96
2022-08-21T12:04:09.515Z,45.88
2022-08-21T12:06:42.126Z,46.73
2022-08-21T12:09:32.587Z,46.80
2022-08-21T12:12:06.329Z,46.78
2022-08-21T12:14:46.097Z,47.30
2022-08-21T12:17:24.171Z,48.32
2022-08-21T12:20:02.611Z,44.87
2022-08-21T12:22:41.799Z,45.72
2022-08-21T12:25:21.957Z,45.92
2022-08-21T12:27:52.891Z,45.99
2022-08-21T12:30:28.409Z,45.93
2022-08-21T12:33:01.634Z,46.22
2022-08-21T12:35:44.611Z,44.84
2022-08-21T12:38:19.408Z,45.26
2022-08-21T12:40:55.800Z,45.02
2022-08-21T12:43:30.502Z,43.30
2022-08-21T12:45:59.991Z,43.88
2022-08-21T12:48:58.274Z,42.82
2022-08-21T12:51:30.078Z,43.42
2022-08-21T12:53:59.530Z,42.39
2022-08-21T12:56:31.196Z,43.59
2022-08-21T12:59:07.830Z,43.81
2022-08-21T13:01:41.803Z,41.13
2022-08-21T13:04:25.976Z,41.98
2022-08-21T13:06:55.517Z,43.41
2022-08-21T13:09:29.088Z,42.13
2022-08-21T13:11:56.746Z,44.74
2022-08-21T13:14:33.092Z,43.37
2022-08-21T13:17:01.161Z,41.71
2022-08-21T13:19:30.583Z,39.92
2022-08-21T13:21:57.342Z,40.29
2022-08-21T13:24:46.175Z,42.16
2022-08-21T13:27:22.024Z,40.40
2022-08-21T13:29:53.088Z,39.24
2022-08-21T13:32:27.050Z,37.53
2022-08-21T13:34:54.470Z,38.67
2022-08-21T13:37:23.720Z,37.73
2022-08-21T13:39:53.839Z,37.58
2022-08-21T13:42:21.249Z,38.46
2022-08-21T13:44:49.000Z,39.56
2022-08-21T13:47:18.106Z,37.76
2022-08-21T13:49:48.368Z,38.50
2022-08-21T13:52:27.469Z,37.31
2022-08-21T13:55:11.093Z,36.75
2022-08-21T13:57:38.874Z,39.80
2022-08-21T14:00:27.905Z,38.62
2022-08-21T14:03:00.743Z,40.05
2022-08-21T14:05:30.578Z,37.65
2022-08-21T14:08:06.286Z,37.35
2022-08-21T14:10:37.578Z,36.23
2022-08-21T14:13:07.286Z,38.51
2022-08-21T14:15:36.628Z,38.54
2022-08-21T14:18:18.555Z,37.84
2022-08-21T14:20:46.622Z,36.74
2022-08-21T14:23:26.557Z,36.30
2022-08-21T14:25:54.049Z,36.81
2022-08-21T14:28:28.166Z,37.26
2022-08-21T14:30:56.998Z,37.42
2022-08-21T14:33:34.200Z,37.87
2022-08-21T14:36:02.878Z,37.78
2022-08-21T14:38:30.635Z,42.29
2022-08-21T14:41:05.364Z,37.09
2022-08-21T14:43:32.193Z,37.68
2022-08-21T14:46:02.288Z,38.35
2022-08-21T14:48:28.843Z,35.67
2022-08-21T14:51:00.195Z,36.11
2022-08-21T14:53:27.243Z,39.81
2022-08-21T14:56:07.694Z,36.43
2022-08-21T14:58:38.404Z,39.81
2022-08-21T15:01:07.787Z,38.11
2022-08-21T15:03:35.283Z,39.58
2022-08-21T15:06:02.447Z,43.06
2022-08-21T15:08:29.088Z,35.81
2022-08-21T15:11:11.836Z,39.26
2022-08-21T15:13:39.361Z,36.61
2022-08-21T15:16:06.080Z,34.04
2022-08-21T15:18:32.768Z,36.93
2022-08-21T15:20:59.384Z,34.91
2022-08-21T15:23:25.906Z,33.46
2022-08-21T15:25:54.765Z,30.95
2022-08-21T15:28:22.269Z,30.51
2022-08-21T15:30:49.691Z,30.21
2022-08-21T15:33:16.238Z,31.98
2022-08-21T15:35:42.924Z,31.72
2022-08-21T15:38:11.370Z,32.85
2022-08-21T15:40:45.369Z,36.06
2022-08-21T15:43:38.227Z,33.86
2022-08-21T15:46:06.773Z,34.89
2022-08-21T15:48:33.292Z,35.47
2022-08-21T15:50:59.844Z,40.54
2022-08-21T15:53:26.557Z,37.25
2022-08-21T15:55:55.168Z,36.44
2022-08-21T15:58:22.913Z,39.90
2022-08-21T16:00:49.699Z,38.84
2022-08-21T16:03:20.885Z,44.86
2022-08-21T16:05:52.684Z,39.83
2022-08-21T16:08:20.974Z,40.06
2022-08-21T16:13:43.663Z,44.11
2022-08-21T16:16:18.752Z,47.12
2022-08-21T16:18:46.007Z,47.37
2022-08-21T16:21:12.560Z,48.49
2022-08-21T16:23:40.442Z,49.37
2022-08-21T16:26:09.103Z,48.76
2022-08-21T16:28:43.524Z,50.57
2022-08-21T16:31:10.487Z,50.61
2022-08-21T16:33:51.044Z,51.59
2022-08-21T16:36:20.947Z,51.31
2022-08-21T16:38:48.935Z,51.87
2022-08-21T16:41:19.714Z,52.36
2022-08-21T16:43:47.028Z,52.87
2022-08-21T16:46:15.494Z,53.74
2022-08-21T16:48:46.431Z,54.14
2022-08-21T16:51:17.309Z,54.17
2022-08-21T16:53:44.504Z,53.24
2022-08-21T16:56:13.539Z,54.57
2022-08-21T16:58:44.398Z,53.92
2022-08-21T17:01:15.385Z,53.69
2022-08-21T17:03:48.112Z,54.12
2022-08-21T17:06:16.516Z,54.59
2022-08-21T17:08:44.468Z,55.94
2022-08-21T17:11:36.751Z,55.90
2022-08-21T17:14:16.011Z,56.89
2022-08-21T17:16:47.312Z,58.77
2022-08-21T17:19:14.323Z,59.66
2022-08-21T17:21:41.359Z,60.52
2022-08-21T17:24:08.355Z,61.56
2022-08-21T17:26:37.069Z,60.85
2022-08-21T17:29:09.812Z,59.67
2022-08-21T17:31:38.992Z,58.79
2022-08-21T17:34:06.079Z,59.31
2022-08-21T17:36:33.170Z,59.76
2022-08-21T17:38:59.930Z,59.26
2022-08-21T17:41:26.716Z,60.52
2022-08-21T17:43:55.074Z,60.67
2022-08-21T17:46:29.264Z,59.83
2022-08-21T17:48:57.014Z,60.46
2022-08-21T17:51:24.030Z,59.95
2022-08-21T17:53:50.598Z,58.98
2022-08-21T17:56:19.154Z,59.92
2022-08-21T17:58:51.539Z,59.67
2022-08-21T18:01:20.358Z,60.61
2022-08-21T18:03:48.259Z,58.74
2022-08-21T18:06:18.051Z,57.94
2022-08-21T18:08:45.734Z,57.44
2022-08-21T18:11:23.346Z,58.71
2022-08-21T18:13:51.768Z,59.80
2022-08-21T18:16:19.576Z,59.24
2022-08-21T18:18:51.781Z,60.97
2022-08-21T18:21:18.579Z,60.72
2022-08-21T18:23:45.256Z,59.54
2022-08-21T18:26:15.506Z,60.64
2022-08-21T18:28:44.281Z,62.20
2022-08-21T18:31:12.882Z,62.51
2022-08-21T18:33:57.612Z,63.28
2022-08-21T18:36:30.721Z,65.82
2022-08-21T18:39:13.349Z,67.12
2022-08-21T18:41:46.092Z,68.02
2022-08-21T18:44:14.735Z,68.70
2022-08-21T18:46:46.520Z,69.86
2022-08-21T18:49:13.251Z,70.18
2022-08-21T18:51:43.497Z,71.08
2022-08-21T18:54:12.928Z,72.11
2022-08-21T18:56:40.200Z,72.34
2022-08-21T18:59:10.515Z,72.44
2022-08-21T19:01:38.118Z,74.19
2022-08-21T19:04:06.727Z,75.04
2022-08-21T19:06:36.560Z,76.42
2022-08-21T19:09:07.546Z,77.14
2022-08-21T19:11:35.285Z,77.79
2022-08-21T19:14:06.549Z,78.57
2022-08-21T19:16:47.489Z,79.53
2022-08-21T19:19:15.400Z,79.71
2022-08-21T19:21:42.400Z,80.02
2022-08-21T19:24:17.572Z,80.23
2022-08-21T19:26:45.102Z,80.71
2022-08-21T19:29:15.295Z,80.80
2022-08-21T19:31:44.623Z,81.56
2022-08-21T19:34:18.916Z,81.98
2022-08-21T19:36:46.270Z,81.92
2022-08-21T19:39:14.912Z,81.87
2022-08-21T19:41:45.554Z,80.71
2022-08-21T19:44:22.352Z,80.43
2022-08-21T19:46:52.085Z,80.30
2022-08-21T19:49:22.196Z,81.39
2022-08-21T19:51:50.066Z,81.19
2022-08-21T19:54:20.859Z,81.19
2022-08-21T19:56:48.642Z,80.79
2022-08-21T19:59:18.362Z,81.07
2022-08-21T20:01:51.748Z,81.27
2022-08-21T20:04:19.168Z,81.77
2022-08-21T20:06:47.083Z,82.20
2022-08-21T20:09:14.900Z,82.55
2022-08-21T20:11:54.386Z,83.77
2022-08-21T20:14:25.671Z,85.11
2022-08-21T20:16:52.941Z,85.68
2022-08-21T20:19:21.111Z,85.86
2022-08-21T20:21:48.423Z,86.12
2022-08-21T20:24:16.341Z,86.57
2022-08-21T20:26:48.643Z,87.05
2022-08-21T20:29:24.605Z,86.84
2022-08-21T20:32:00.795Z,87.30
2022-08-21T20:34:27.350Z,87.17
2022-08-21T20:36:53.964Z,87.92
2022-08-21T20:39:23.954Z,87.87
2022-08-21T20:41:52.662Z,88.19
2022-08-21T20:44:19.481Z,87.72
2022-08-21T20:46:46.383Z,87.99
2022-08-21T20:49:19.426Z,87.07
2022-08-21T20:51:52.215Z,85.04
2022-08-21T20:54:31.090Z,82.42
2022-08-21T20:57:21.876Z,81.92
2022-08-21T20:59:55.468Z,82.49
2022-08-21T21:02:28.209Z,80.92
2022-08-21T21:05:09.211Z,81.27
2022-08-21T21:08:14.258Z,81.75
2022-08-21T21:11:03.411Z,81.97
2022-08-21T21:13:38.644Z,83.28
2022-08-21T21:16:17.499Z,84.40
2022-08-21T21:18:49.987Z,85.30
2022-08-21T21:21:42.014Z,86.35
2022-08-21T21:24:22.926Z,87.17
2022-08-21T21:27:12.761Z,87.69
2022-08-21T21:29:56.843Z,87.99
2022-08-21T21:32:23.763Z,87.08
2022-08-21T21:34:51.338Z,86.62
2022-08-21T21:37:25.963Z,86.71
2022-08-21T21:40:10.418Z,87.25
2022-08-21T21:42:52.410Z,87.39
2022-08-21T21:45:38.202Z,87.17
2022-08-21T21:48:49.576Z,87.73
2022-08-21T21:51:38.914Z,87.37
2022-08-21T21:54:30.931Z,88.07
2022-08-21T21:57:29.652Z,87.67
2022-08-21T22:00:18.711Z,87.34
2022-08-21T22:03:03.553Z,87.96
2022-08-21T22:05:48.935Z,88.99
2022-08-21T22:08:37.286Z,89.49
2022-08-21T22:11:24.417Z,89.27
2022-08-21T22:14:18.759Z,90.04
2022-08-21T22:16:50.666Z,90.11
2022-08-21T22:19:25.967Z,89.84
2022-08-21T22:22:00.487Z,89.15
2022-08-21T22:24:35.787Z,89.66
2022-08-21T22:27:13.010Z,89.66
2022-08-21T22:35:33.317Z,89.35
2022-08-21T22:38:01.424Z,89.52
2022-08-21T22:40:32.518Z,89.18
2022-08-21T22:43:17.573Z,88.77
2022-08-21T22:46:05.684Z,89.51
2022-08-21T22:48:37.103Z,88.37
2022-08-21T22:51:07.703Z,89.66
2022-08-21T22:53:38.655Z,89.93
2022-08-21T22:56:07.642Z,89.84
2022-08-21T22:58:52.371Z,89.80
2022-08-21T23:01:22.133Z,90.11
2022-08-21T23:03:57.680Z,89.62
2022-08-21T23:06:32.739Z,89.42
2022-08-21T23:09:00.502Z,88.03
2022-08-21T23:11:50.776Z,87.95
2022-08-21T23:14:18.151Z,87.94
2022-08-21T23:16:57.943Z,88.34
2022-08-21T23:19:58.704Z,88.98
2022-08-21T23:22:31.951Z,88.87
2022-08-21T23:25:43.611Z,88.44
2022-08-21T23:28:28.081Z,88.53
2022-08-21T23:31:06.852Z,88.49
2022-08-21T23:33:59.275Z,89.19
2022-08-21T23:37:48.718Z,89.29
2022-08-21T23:40:22.450Z,89.59
2022-08-21T23:43:35.585Z,89.57
2022-08-21T23:46:21.396Z,89.65
2022-08-21T23:49:19.748Z,88.62
2022-08-21T23:52:10.451Z,89.66
2022-08-21T23:54:56.979Z,90.40
2022-08-21T23:57:50.940Z,90.82
